KLHW

Wright AAF (Fort Stewart) / Midcoast Regional Airport

Fort Stewart(Hinesville), Georgia, USA
METAR KLHW 191056Z AUTO 00000KT 10SM CLR 21/20 A2991 RMK AO2 SLPNO T02110204 $
Observed Flight Rules
Sep-19 @ 10:56 UTC (27 minutes ago) Visual Flight Rules
Visibility Clouds
10 miles
  • Clear skies
Temperatures Readings
Current 21°C / 70°F
Dewpoint 20°C / 68°F
Humidity 94%
Altimeter 29.91" Hg
Pressure 1013 hPa
Elevation 14
METAR KLHW 191056Z AUTO 00000KT 10SM CLR 21/20 A2991 RMK AO2 SLPNO T02110204 $
Observed Flight Rules
Sep-19 @ 10:56 UTC
(27 minutes ago)
VFR
Clouds
  • Clear skies
Temperature Dewpoint
21°C / 70°F 20°C / 68°F
Humidity Altimeter Pressure
94% 29.91" Hg 1013 hPa